createdAt,value
2019-05-30T04:23:46.440Z,1012.51
2019-05-30T04:24:46.402Z,1012.52
2019-05-30T04:25:46.356Z,1012.53
2019-05-30T04:26:46.346Z,1012.57
2019-05-30T04:27:46.370Z,1012.59
2019-05-30T04:28:46.403Z,1012.56
2019-05-30T04:29:46.335Z,1012.60
2019-05-30T04:30:46.348Z,1012.62
2019-05-30T04:31:46.358Z,1012.64
2019-05-30T04:32:46.287Z,1012.71
2019-05-30T04:33:46.306Z,1012.67
2019-05-30T04:34:46.308Z,1012.74
2019-05-30T04:35:46.319Z,1012.73
2019-05-30T04:36:46.292Z,1012.75
2019-05-30T04:37:46.300Z,1012.76
2019-05-30T04:38:46.253Z,1012.75
2019-05-30T04:39:46.306Z,1012.75
2019-05-30T04:40:46.271Z,1012.75
2019-05-30T04:41:46.290Z,1012.77
2019-05-30T04:42:46.249Z,1012.78
2019-05-30T04:43:46.299Z,1012.81
2019-05-30T04:44:46.306Z,1012.81
2019-05-30T04:45:46.270Z,1012.90
2019-05-30T04:46:46.279Z,1012.92
2019-05-30T04:47:46.271Z,1012.90
2019-05-30T04:48:46.244Z,1012.93
2019-05-30T04:49:46.275Z,1012.87
2019-05-30T04:50:46.253Z,1012.90
2019-05-30T04:51:46.271Z,1012.92
2019-05-30T04:52:46.277Z,1012.92
2019-05-30T04:53:46.277Z,1012.92
2019-05-30T04:54:46.268Z,1012.92
2019-05-30T04:55:46.272Z,1012.93
2019-05-30T04:56:46.265Z,1012.98
2019-05-30T04:57:46.298Z,1013.04
2019-05-30T04:58:46.276Z,1013.01
2019-05-30T04:59:46.292Z,1013.04
2019-05-30T05:00:46.279Z,1013.00
2019-05-30T05:01:46.316Z,1013.05
2019-05-30T05:02:46.316Z,1013.08
2019-05-30T05:03:47.033Z,1013.05
2019-05-30T05:04:46.297Z,1013.10
2019-05-30T05:05:46.325Z,1013.12
2019-05-30T05:06:46.336Z,1013.15
2019-05-30T05:07:46.358Z,1013.12
2019-05-30T05:08:46.377Z,1013.11
2019-05-30T05:09:46.388Z,1013.09
2019-05-30T05:10:46.395Z,1013.10
2019-05-30T05:11:46.367Z,1013.09
2019-05-30T05:12:46.387Z,1013.10
2019-05-30T05:13:46.371Z,1013.10
2019-05-30T05:14:46.390Z,1013.12
2019-05-30T05:15:46.407Z,1013.15
2019-05-30T05:16:46.415Z,1013.12
2019-05-30T05:17:46.450Z,1013.18
2019-05-30T05:18:46.423Z,1013.19
2019-05-30T05:19:46.493Z,1013.22
2019-05-30T05:20:46.448Z,1013.24
2019-05-30T05:21:46.446Z,1013.31
2019-05-30T05:22:46.537Z,1013.29
2019-05-30T05:23:46.486Z,1013.34
2019-05-30T05:24:46.527Z,1013.36
2019-05-30T05:25:59.857Z,1013.37
2019-05-30T05:26:46.508Z,1013.36
2019-05-30T05:27:46.521Z,1013.42
2019-05-30T05:28:46.576Z,1013.43
2019-05-30T05:29:46.536Z,1013.39
2019-05-30T05:30:55.318Z,1013.43
2019-05-30T05:32:40.255Z,1013.46
2019-05-30T05:33:53.711Z,1013.48
2019-05-30T05:34:40.279Z,1013.42
2019-05-30T05:35:40.334Z,1013.43
2019-05-30T05:36:40.296Z,1013.42
2019-05-30T05:37:40.312Z,1013.43
2019-05-30T05:38:40.312Z,1013.42
2019-05-30T05:39:49.073Z,1013.41
2019-05-30T05:41:44.894Z,1013.18
2019-05-30T05:42:44.896Z,1013.05
2019-05-30T05:43:44.884Z,1013.09
2019-05-30T05:44:44.932Z,1013.21
2019-05-30T05:45:44.938Z,1013.18
2019-05-30T05:46:44.968Z,1013.19
2019-05-30T05:47:45.024Z,1013.22
2019-05-30T05:48:45.002Z,1013.26
2019-05-30T05:49:45.083Z,1013.31
2019-05-30T05:50:45.039Z,1013.34
2019-05-30T05:51:45.029Z,1013.39
2019-05-30T05:52:45.035Z,1013.44
2019-05-30T05:53:45.103Z,1013.49
2019-05-30T05:54:45.143Z,1013.58
2019-05-30T05:55:45.121Z,1013.69
2019-05-30T05:56:53.809Z,1013.92
2019-05-30T05:58:50.654Z,1013.91
2019-05-30T06:00:00.164Z,1013.76
2019-05-30T06:01:55.785Z,1014.65
2019-05-30T06:02:55.586Z,1014.75
2019-05-30T06:04:13.167Z,1014.94
2019-05-30T06:06:00.117Z,1015.47
2019-05-30T06:07:00.075Z,1015.66
2019-05-30T06:08:00.087Z,1015.62
2019-05-30T06:09:00.296Z,1015.79
2019-05-30T06:10:00.153Z,1015.64
2019-05-30T06:11:00.211Z,1016.20
2019-05-30T06:12:00.209Z,1016.66
2019-05-30T06:13:00.183Z,1016.76
2019-05-30T06:14:00.198Z,1016.78
2019-05-30T06:15:00.265Z,1015.67
2019-05-30T06:16:00.237Z,1014.15
2019-05-30T06:17:00.268Z,1013.57
2019-05-30T06:18:00.278Z,1013.65
2019-05-30T06:19:00.288Z,1013.57
2019-05-30T06:20:00.312Z,1013.59
2019-05-30T06:21:00.280Z,1013.62
2019-05-30T06:22:00.352Z,1013.59
2019-05-30T06:23:00.316Z,1013.50
2019-05-30T06:24:00.337Z,1013.60
2019-05-30T06:25:00.352Z,1013.59
2019-05-30T06:26:00.384Z,1013.64
2019-05-30T06:27:09.567Z,1013.66
2019-05-30T06:29:06.883Z,1013.60
2019-05-30T06:31:46.893Z,1013.68
2019-05-30T06:32:46.928Z,1013.64
2019-05-30T06:33:46.912Z,1013.65
2019-05-30T06:34:46.882Z,1013.69
2019-05-30T06:35:46.861Z,1013.64
2019-05-30T06:36:46.873Z,1013.65
2019-05-30T06:37:46.880Z,1013.65
2019-05-30T06:38:46.858Z,1013.62
2019-05-30T06:39:46.873Z,1013.59
2019-05-30T06:40:46.875Z,1013.62
2019-05-30T06:41:46.893Z,1013.59
2019-05-30T06:42:46.894Z,1013.56
2019-05-30T06:43:46.898Z,1013.55
2019-05-30T06:44:46.891Z,1013.56
2019-05-30T06:45:46.903Z,1013.60
2019-05-30T06:46:46.957Z,1013.61
2019-05-30T06:47:46.966Z,1013.62
2019-05-30T06:48:46.923Z,1013.60
2019-05-30T06:49:46.936Z,1013.60
2019-05-30T06:50:46.929Z,1013.59
2019-05-30T06:51:47.074Z,1013.61
2019-05-30T06:52:46.950Z,1013.62
2019-05-30T06:53:46.938Z,1013.61
2019-05-30T06:54:46.947Z,1013.64
2019-05-30T06:55:46.965Z,1013.64
2019-05-30T06:56:46.984Z,1013.66
2019-05-30T06:57:46.960Z,1013.70
2019-05-30T06:58:49.003Z,1013.68
2019-05-30T06:59:46.961Z,1013.69
2019-05-30T07:00:46.980Z,1013.71
2019-05-30T07:01:46.973Z,1013.66
2019-05-30T07:02:46.996Z,1013.67
2019-05-30T07:03:47.125Z,1013.65
2019-05-30T07:04:52.063Z,1013.67
2019-05-30T07:05:47.489Z,1013.68
2019-05-30T07:06:47.411Z,1013.69
2019-05-30T07:07:47.208Z,1013.65
2019-05-30T07:08:46.991Z,1013.65
2019-05-30T07:09:47.038Z,1013.64
2019-05-30T07:10:47.063Z,1013.63
2019-05-30T07:11:47.060Z,1013.64
2019-05-30T07:12:47.109Z,1013.69
2019-05-30T07:13:47.088Z,1013.70
2019-05-30T07:14:47.043Z,1013.68
2019-05-30T07:15:47.033Z,1013.66
2019-05-30T07:16:47.113Z,1013.67
2019-05-30T07:17:47.099Z,1013.66
2019-05-30T07:18:47.144Z,1013.69
2019-05-30T07:19:47.021Z,1013.69
2019-05-30T07:20:47.055Z,1013.70
2019-05-30T07:21:47.027Z,1013.72
2019-05-30T07:22:47.028Z,1013.73
2019-05-30T07:23:47.787Z,1013.72
2019-05-30T07:24:47.097Z,1013.68
2019-05-30T07:25:47.121Z,1013.72
2019-05-30T07:26:47.077Z,1013.74
2019-05-30T07:27:47.158Z,1013.74
2019-05-30T07:28:47.035Z,1013.73
2019-05-30T07:29:47.866Z,1013.72
2019-05-30T07:30:47.064Z,1013.72
2019-05-30T07:31:47.074Z,1013.73
2019-05-30T07:32:47.398Z,1013.73
2019-05-30T07:33:47.105Z,1013.72
2019-05-30T07:34:47.074Z,1013.72
2019-05-30T07:35:47.134Z,1013.72
2019-05-30T07:36:47.079Z,1013.76
2019-05-30T07:37:47.136Z,1013.73
2019-05-30T07:38:47.091Z,1013.73
2019-05-30T07:39:47.590Z,1013.78
2019-05-30T07:40:47.159Z,1013.76
2019-05-30T07:42:04.917Z,1013.77
2019-05-30T07:42:47.072Z,1013.77
2019-05-30T07:43:47.147Z,1013.81
2019-05-30T07:44:47.101Z,1013.75
2019-05-30T07:45:57.634Z,1013.77
2019-05-30T07:46:47.271Z,1013.78
2019-05-30T07:47:47.069Z,1013.76
2019-05-30T07:48:47.129Z,1013.80
2019-05-30T07:49:47.429Z,1013.78
2019-05-30T07:50:47.077Z,1013.80
2019-05-30T07:51:47.085Z,1013.78
2019-05-30T07:52:47.098Z,1013.77
2019-05-30T07:53:47.119Z,1013.75
2019-05-30T07:54:47.080Z,1013.77
2019-05-30T07:55:47.158Z,1013.78
2019-05-30T07:56:47.125Z,1013.82
2019-05-30T07:57:47.499Z,1013.83
2019-05-30T07:58:47.129Z,1013.81
2019-05-30T07:59:47.142Z,1013.80
2019-05-30T08:00:47.115Z,1013.84
2019-05-30T08:01:47.101Z,1013.84
2019-05-30T08:02:47.108Z,1013.85
2019-05-30T08:03:47.103Z,1013.84
2019-05-30T08:04:47.193Z,1013.85
2019-05-30T08:05:47.133Z,1013.78
2019-05-30T08:06:47.152Z,1013.80
2019-05-30T08:07:47.885Z,1013.79
2019-05-30T08:08:56.000Z,1013.77
2019-05-30T08:11:08.065Z,1013.78
2019-05-30T08:11:52.654Z,1013.77
2019-05-30T08:12:52.644Z,1013.73
2019-05-30T08:13:52.660Z,1013.74
2019-05-30T08:14:52.646Z,1013.74
2019-05-30T08:15:52.679Z,1013.71
2019-05-30T08:16:52.639Z,1013.70
2019-05-30T08:17:53.070Z,1013.75
2019-05-30T08:18:52.621Z,1013.73
2019-05-30T08:19:52.658Z,1013.74
2019-05-30T08:20:52.704Z,1013.74
2019-05-30T08:21:52.632Z,1013.73
2019-05-30T08:22:52.638Z,1013.69
2019-05-30T08:23:52.803Z,1013.69
2019-05-30T08:24:52.629Z,1013.70
2019-05-30T08:25:52.645Z,1013.74
2019-05-30T08:28:42.686Z,1013.71
2019-05-30T08:29:40.798Z,1013.73
2019-05-30T08:31:36.871Z,1013.74
2019-05-30T08:32:36.931Z,1013.70
2019-05-30T08:33:37.567Z,1013.67
2019-05-30T08:34:36.695Z,1013.66
2019-05-30T08:35:46.703Z,1013.73
2019-05-30T08:36:37.112Z,1013.69
2019-05-30T08:37:37.320Z,1013.71
2019-05-30T08:38:37.414Z,1013.73
2019-05-30T08:39:37.390Z,1013.72
2019-05-30T08:40:37.700Z,1013.68
2019-05-30T08:41:37.381Z,1013.72
2019-05-30T08:42:38.200Z,1013.68
2019-05-30T08:43:37.505Z,1013.69
2019-05-30T08:44:36.388Z,1013.69
2019-05-30T08:45:36.398Z,1013.69
2019-05-30T08:46:36.382Z,1013.69
2019-05-30T08:47:36.404Z,1013.69
2019-05-30T08:48:36.407Z,1013.66
2019-05-30T08:49:36.425Z,1013.66
2019-05-30T08:50:38.652Z,1013.64
2019-05-30T08:51:36.414Z,1013.66
2019-05-30T08:52:36.571Z,1013.64
2019-05-30T08:53:36.534Z,1013.59
2019-05-30T08:54:36.503Z,1013.59
2019-05-30T08:55:36.519Z,1013.58
2019-05-30T08:56:36.572Z,1013.58
2019-05-30T08:57:36.696Z,1013.55
2019-05-30T08:58:36.806Z,1013.54
2019-05-30T08:59:36.724Z,1013.47
2019-05-30T09:00:36.977Z,1013.53
2019-05-30T09:01:37.446Z,1013.55
2019-05-30T09:02:36.669Z,1013.52
2019-05-30T09:03:36.411Z,1013.50
2019-05-30T09:04:37.809Z,1013.56
2019-05-30T09:05:36.707Z,1013.51
2019-05-30T09:06:36.420Z,1013.48
2019-05-30T09:07:36.574Z,1013.49
2019-05-30T09:08:36.423Z,1013.56
2019-05-30T09:09:36.431Z,1013.48
2019-05-30T09:10:37.787Z,1013.45
2019-05-30T09:11:37.699Z,1013.46
2019-05-30T09:12:37.897Z,1013.45
2019-05-30T09:13:37.716Z,1013.43
2019-05-30T09:14:37.877Z,1013.41
2019-05-30T09:15:37.451Z,1013.39
2019-05-30T09:16:36.428Z,1013.35
2019-05-30T09:17:38.711Z,1013.37
2019-05-30T09:18:37.985Z,1013.36
2019-05-30T09:19:37.953Z,1013.35
2019-05-30T09:20:37.883Z,1013.33
2019-05-30T09:21:36.816Z,1013.31
2019-05-30T09:22:37.922Z,1013.35
2019-05-30T09:23:38.282Z,1013.28
2019-05-30T09:24:38.461Z,1013.30
2019-05-30T09:25:37.203Z,1013.33
2019-05-30T09:26:38.515Z,1013.30
2019-05-30T09:27:38.890Z,1013.34
2019-05-30T09:28:36.446Z,1013.31
2019-05-30T09:29:36.484Z,1013.30
2019-05-30T09:30:36.518Z,1013.29
2019-05-30T09:31:36.479Z,1013.35
2019-05-30T09:32:36.462Z,1013.31
2019-05-30T09:33:36.496Z,1013.35
2019-05-30T09:34:36.483Z,1013.28
2019-05-30T09:35:36.482Z,1013.29
2019-05-30T09:36:36.516Z,1013.30
2019-05-30T09:37:36.498Z,1013.32
2019-05-30T09:38:36.462Z,1013.31
2019-05-30T09:39:36.491Z,1013.30
2019-05-30T09:40:36.473Z,1013.31
2019-05-30T09:41:36.495Z,1013.30
2019-05-30T09:42:36.517Z,1013.33
2019-05-30T09:43:36.498Z,1013.30
2019-05-30T09:44:36.493Z,1013.34
2019-05-30T09:45:36.495Z,1013.31
2019-05-30T09:46:36.528Z,1013.29
2019-05-30T09:47:36.511Z,1013.34
2019-05-30T09:48:36.494Z,1013.33
2019-05-30T09:49:36.500Z,1013.33
2019-05-30T09:50:36.485Z,1013.32
2019-05-30T09:51:36.486Z,1013.31
2019-05-30T09:52:36.507Z,1013.29
2019-05-30T09:53:36.487Z,1013.28
2019-05-30T09:54:37.048Z,1013.26
2019-05-30T09:55:36.562Z,1013.25
2019-05-30T09:56:36.600Z,1013.23
2019-05-30T09:57:36.490Z,1013.17
2019-05-30T09:58:36.591Z,1013.22
2019-05-30T09:59:36.520Z,1013.23
2019-05-30T10:00:36.894Z,1013.22
2019-05-30T10:01:36.529Z,1013.24
2019-05-30T10:02:36.528Z,1013.20
2019-05-30T10:03:36.533Z,1013.19
2019-05-30T10:04:36.532Z,1013.20
2019-05-30T10:05:36.515Z,1013.19
2019-05-30T10:06:36.520Z,1013.16
2019-05-30T10:07:36.548Z,1013.21
2019-05-30T10:08:36.546Z,1013.21
2019-05-30T10:09:36.521Z,1013.19
2019-05-30T10:10:36.533Z,1013.16
2019-05-30T10:11:36.528Z,1013.16
2019-05-30T10:12:36.562Z,1013.16
2019-05-30T10:13:36.525Z,1013.16
2019-05-30T10:14:36.560Z,1013.13
2019-05-30T10:15:36.622Z,1013.16
2019-05-30T10:16:36.534Z,1013.11
2019-05-30T10:17:36.544Z,1013.11
2019-05-30T10:18:36.608Z,1013.16
2019-05-30T10:19:36.572Z,1013.14
2019-05-30T10:20:36.643Z,1013.12
2019-05-30T10:21:36.563Z,1013.12
2019-05-30T10:22:36.564Z,1013.14
2019-05-30T10:23:36.575Z,1013.11
2019-05-30T10:24:36.596Z,1013.10
2019-05-30T10:25:36.587Z,1013.06
2019-05-30T10:26:36.606Z,1013.07
2019-05-30T10:27:36.597Z,1013.06
2019-05-30T10:28:36.613Z,1013.09
2019-05-30T10:29:36.608Z,1013.06
2019-05-30T10:30:36.624Z,1013.12
2019-05-30T10:31:36.587Z,1013.08
2019-05-30T10:32:36.695Z,1013.12
2019-05-30T10:33:36.602Z,1013.05
2019-05-30T10:34:36.605Z,1013.04
2019-05-30T10:35:36.725Z,1013.12
2019-05-30T10:36:44.238Z,1013.05
2019-05-30T10:37:36.560Z,1013.10
2019-05-30T10:38:36.588Z,1013.04
2019-05-30T10:39:47.314Z,1013.00
2019-05-30T10:41:41.270Z,1013.09
2019-05-30T10:42:41.100Z,1013.09
2019-05-30T10:43:41.121Z,1013.06
2019-05-30T10:44:41.166Z,1013.05
2019-05-30T10:45:41.157Z,1012.99
2019-05-30T10:46:41.155Z,1013.05
2019-05-30T10:47:41.188Z,1013.00
2019-05-30T10:48:41.253Z,1013.00
2019-05-30T10:49:41.183Z,1013.05
2019-05-30T10:50:41.156Z,1012.99
2019-05-30T10:51:41.119Z,1012.97
2019-05-30T10:52:41.171Z,1012.96
2019-05-30T10:53:41.291Z,1012.95
2019-05-30T10:54:41.195Z,1012.91
2019-05-30T10:55:41.189Z,1012.90
2019-05-30T10:56:41.193Z,1012.90
2019-05-30T10:57:41.150Z,1012.93
2019-05-30T10:58:41.146Z,1012.89
2019-05-30T10:59:41.214Z,1012.93
2019-05-30T11:00:41.150Z,1012.88
2019-05-30T11:01:41.179Z,1012.87
2019-05-30T11:02:41.152Z,1012.85
2019-05-30T11:03:41.135Z,1012.83
2019-05-30T11:04:41.193Z,1012.86
2019-05-30T11:05:41.229Z,1012.89
2019-05-30T11:06:41.176Z,1012.87
2019-05-30T11:07:53.165Z,1012.88
2019-05-30T11:08:41.194Z,1012.87
2019-05-30T11:09:41.227Z,1012.88
2019-05-30T11:10:41.185Z,1012.87
2019-05-30T11:11:41.154Z,1012.85
2019-05-30T11:12:41.192Z,1012.81
2019-05-30T11:13:41.172Z,1012.85
2019-05-30T11:14:41.314Z,1012.83
2019-05-30T11:15:41.216Z,1012.89
2019-05-30T11:16:41.241Z,1012.77
2019-05-30T11:17:41.213Z,1012.79
2019-05-30T11:18:41.219Z,1012.81
2019-05-30T11:19:41.203Z,1012.78
2019-05-30T11:20:41.231Z,1012.74
2019-05-30T11:21:41.257Z,1012.78
2019-05-30T11:22:41.216Z,1012.77
2019-05-30T11:23:41.185Z,1012.75
2019-05-30T11:24:41.190Z,1012.73
2019-05-30T11:25:41.207Z,1012.77
2019-05-30T11:26:41.228Z,1012.72
2019-05-30T11:27:41.228Z,1012.67
2019-05-30T11:28:41.269Z,1012.70
2019-05-30T11:29:41.289Z,1012.67
2019-05-30T11:30:41.318Z,1012.66
2019-05-30T11:31:41.255Z,1012.63
2019-05-30T11:32:41.264Z,1012.64
2019-05-30T11:33:41.269Z,1012.64
2019-05-30T11:34:41.265Z,1012.65
2019-05-30T11:35:41.212Z,1012.59
2019-05-30T11:36:41.253Z,1012.64
2019-05-30T11:37:41.287Z,1012.66
2019-05-30T11:38:41.285Z,1012.66
2019-05-30T11:39:41.236Z,1012.63
2019-05-30T11:40:41.220Z,1012.64
2019-05-30T11:41:41.288Z,1012.59
2019-05-30T11:42:41.279Z,1012.60
2019-05-30T11:43:41.221Z,1012.61
2019-05-30T11:44:41.249Z,1012.60
2019-05-30T11:45:41.244Z,1012.59
2019-05-30T11:46:41.252Z,1012.61
2019-05-30T11:47:41.268Z,1012.63
2019-05-30T11:48:41.293Z,1012.59
2019-05-30T11:49:41.300Z,1012.59
2019-05-30T11:50:41.274Z,1012.57
2019-05-30T11:51:41.272Z,1012.57
2019-05-30T11:52:41.329Z,1012.61
2019-05-30T11:53:41.245Z,1012.58
2019-05-30T11:54:41.276Z,1012.58
2019-05-30T11:55:41.253Z,1012.54
2019-05-30T11:56:41.307Z,1012.58
2019-05-30T11:57:41.263Z,1012.59
2019-05-30T11:58:41.290Z,1012.59
2019-05-30T11:59:41.284Z,1012.55
2019-05-30T12:00:41.260Z,1012.60
2019-05-30T12:01:41.289Z,1012.56
2019-05-30T12:02:41.300Z,1012.61
2019-05-30T12:03:41.282Z,1012.58
2019-05-30T12:04:41.270Z,1012.60
2019-05-30T12:05:41.279Z,1012.58
2019-05-30T12:06:41.279Z,1012.55
2019-05-30T12:07:41.345Z,1012.54
2019-05-30T12:08:41.301Z,1012.51
2019-05-30T12:09:41.282Z,1012.53
2019-05-30T12:10:41.314Z,1012.56
2019-05-30T12:11:41.291Z,1012.55
2019-05-30T12:12:41.335Z,1012.61
2019-05-30T12:13:41.297Z,1012.60
2019-05-30T12:14:41.288Z,1012.60
2019-05-30T12:15:41.301Z,1012.60
2019-05-30T12:16:41.340Z,1012.56
2019-05-30T12:17:41.302Z,1012.52
2019-05-30T12:18:41.342Z,1012.50
2019-05-30T12:19:41.357Z,1012.51
2019-05-30T12:20:41.333Z,1012.47
2019-05-30T12:21:41.330Z,1012.55
2019-05-30T12:22:41.346Z,1012.54
2019-05-30T12:23:41.384Z,1012.50
2019-05-30T12:24:41.364Z,1012.50
2019-05-30T12:25:41.350Z,1012.49
2019-05-30T12:26:41.513Z,1012.47
2019-05-30T12:27:41.378Z,1012.52
2019-05-30T12:28:41.401Z,1012.53
2019-05-30T12:29:41.424Z,1012.55
2019-05-30T12:30:55.237Z,1012.51
2019-05-30T12:31:41.436Z,1012.49
2019-05-30T12:32:41.421Z,1012.52
2019-05-30T12:33:41.419Z,1012.51
2019-05-30T12:34:41.429Z,1012.56
2019-05-30T12:35:41.367Z,1012.51
2019-05-30T12:36:41.389Z,1012.52
2019-05-30T12:37:54.024Z,1012.47
2019-05-30T12:38:41.403Z,1012.47
2019-05-30T12:39:41.387Z,1012.47
2019-05-30T12:40:41.448Z,1012.48
2019-05-30T12:41:41.410Z,1012.48
2019-05-30T12:42:41.407Z,1012.53
2019-05-30T12:43:41.431Z,1012.53
2019-05-30T12:44:41.397Z,1012.54
2019-05-30T12:45:41.449Z,1012.51
2019-05-30T12:46:41.429Z,1012.54
2019-05-30T12:47:41.428Z,1012.47
2019-05-30T12:48:41.474Z,1012.56
2019-05-30T12:49:41.396Z,1012.55
2019-05-30T12:50:41.391Z,1012.54
2019-05-30T12:51:41.438Z,1012.51
2019-05-30T12:52:41.394Z,1012.52
2019-05-30T12:53:41.395Z,1012.49
2019-05-30T12:54:41.405Z,1012.49
2019-05-30T12:55:41.443Z,1012.54
2019-05-30T12:56:49.192Z,1012.54
2019-05-30T12:58:46.171Z,1012.55
2019-05-30T12:59:45.995Z,1012.55
2019-05-30T13:00:46.058Z,1012.54
2019-05-30T13:01:46.153Z,1012.55
2019-05-30T13:02:45.966Z,1012.59
2019-05-30T13:03:45.965Z,1012.58
2019-05-30T13:04:45.980Z,1012.57
2019-05-30T13:05:45.993Z,1012.58
2019-05-30T13:06:55.978Z,1012.58
2019-05-30T13:08:39.563Z,1012.55
2019-05-30T13:09:39.451Z,1012.52
2019-05-30T13:10:48.300Z,1012.56
2019-05-30T13:12:44.936Z,1012.54
2019-05-30T13:13:44.925Z,1012.53
2019-05-30T13:14:44.918Z,1012.53
2019-05-30T13:15:45.024Z,1012.56
2019-05-30T13:16:44.925Z,1012.53
2019-05-30T13:17:44.978Z,1012.54
2019-05-30T13:18:44.923Z,1012.49
2019-05-30T13:19:44.923Z,1012.47
2019-05-30T13:20:53.758Z,1012.54
2019-05-30T13:22:49.529Z,1012.49
2019-05-30T13:23:49.453Z,1012.45
2019-05-30T13:24:59.628Z,1012.48
2019-05-30T13:27:14.050Z,1012.46
2019-05-30T13:28:13.973Z,1012.51
2019-05-30T13:30:10.712Z,1012.50
2019-05-30T13:31:10.719Z,1012.43
2019-05-30T13:32:10.699Z,1012.48
2019-05-30T13:33:10.727Z,1012.51
2019-05-30T13:34:10.707Z,1012.50
2019-05-30T13:35:19.543Z,1012.50
2019-05-30T13:38:54.635Z,1012.51
2019-05-30T13:39:54.634Z,1012.51
2019-05-30T13:41:03.606Z,1012.56
2019-05-30T13:42:59.742Z,1012.57
2019-05-30T13:44:03.288Z,1012.59
2019-05-30T13:44:59.908Z,1012.59
2019-05-30T13:46:00.191Z,1012.57
2019-05-30T13:47:00.717Z,1012.65
2019-05-30T13:48:00.270Z,1012.61
2019-05-30T13:49:00.665Z,1012.62
2019-05-30T13:49:59.168Z,1012.63
2019-05-30T13:50:59.191Z,1012.60
2019-05-30T13:51:59.162Z,1012.60
2019-05-30T13:52:59.213Z,1012.64
2019-05-30T13:53:59.168Z,1012.61
2019-05-30T13:54:59.173Z,1012.69
2019-05-30T13:55:59.327Z,1012.61
2019-05-30T13:56:59.473Z,1012.60
2019-05-30T13:57:59.495Z,1012.63
2019-05-30T13:58:59.703Z,1012.57
2019-05-30T13:59:59.627Z,1012.60
2019-05-30T14:00:59.850Z,1012.58
2019-05-30T14:01:59.834Z,1012.62
2019-05-30T14:02:59.921Z,1012.63
2019-05-30T14:04:00.014Z,1012.57
2019-05-30T14:04:59.984Z,1012.63
2019-05-30T14:05:59.929Z,1012.65
2019-05-30T14:07:00.054Z,1012.61
2019-05-30T14:07:59.948Z,1012.62
2019-05-30T14:09:00.179Z,1012.60
2019-05-30T14:10:00.264Z,1012.61
2019-05-30T14:11:00.439Z,1012.65
2019-05-30T14:12:00.368Z,1012.64
2019-05-30T14:13:00.653Z,1012.65
2019-05-30T14:14:00.472Z,1012.63
2019-05-30T14:15:00.627Z,1012.62
2019-05-30T14:15:59.270Z,1012.62
2019-05-30T14:16:59.287Z,1012.63
2019-05-30T14:17:59.294Z,1012.59
2019-05-30T14:18:59.303Z,1012.64
2019-05-30T14:19:59.366Z,1012.65
2019-05-30T14:20:59.368Z,1012.60
2019-05-30T14:21:59.309Z,1012.60
2019-05-30T14:22:59.318Z,1012.59
2019-05-30T14:23:59.295Z,1012.54
2019-05-30T14:24:59.328Z,1012.61
2019-05-30T14:25:59.333Z,1012.65
2019-05-30T14:26:59.354Z,1012.61
2019-05-30T14:27:59.316Z,1012.65
2019-05-30T14:28:59.357Z,1012.63
2019-05-30T14:29:59.324Z,1012.63
2019-05-30T14:30:59.360Z,1012.66
2019-05-30T14:31:59.551Z,1012.68
2019-05-30T14:32:59.361Z,1012.64
2019-05-30T14:33:59.364Z,1012.65
2019-05-30T14:34:59.375Z,1012.64
2019-05-30T14:35:59.379Z,1012.64
2019-05-30T14:36:59.452Z,1012.61
2019-05-30T14:37:59.391Z,1012.62
2019-05-30T14:38:59.380Z,1012.62
2019-05-30T14:39:59.372Z,1012.59
2019-05-30T14:40:59.429Z,1012.65
2019-05-30T14:41:59.418Z,1012.62
2019-05-30T14:42:59.468Z,1012.64
2019-05-30T14:43:59.398Z,1012.62
2019-05-30T14:44:59.408Z,1012.62
2019-05-30T14:45:59.441Z,1012.62
2019-05-30T14:46:59.439Z,1012.63
2019-05-30T14:47:59.414Z,1012.59
2019-05-30T14:48:59.465Z,1012.62
2019-05-30T14:49:59.431Z,1012.66
2019-05-30T14:50:59.444Z,1012.65
2019-05-30T14:51:59.457Z,1012.62
2019-05-30T14:52:59.441Z,1012.63
2019-05-30T14:53:59.446Z,1012.57
2019-05-30T14:54:59.459Z,1012.61
2019-05-30T14:55:59.515Z,1012.59
2019-05-30T14:56:59.461Z,1012.61
2019-05-30T14:57:59.532Z,1012.56
2019-05-30T14:58:59.474Z,1012.54
2019-05-30T14:59:59.514Z,1012.52
2019-05-30T15:00:59.579Z,1012.51
2019-05-30T15:01:59.588Z,1012.54
2019-05-30T15:02:59.500Z,1012.53
2019-05-30T15:03:59.517Z,1012.62
2019-05-30T15:04:59.504Z,1012.54
2019-05-30T15:05:59.504Z,1012.62
2019-05-30T15:06:59.521Z,1012.57
2019-05-30T15:07:59.558Z,1012.55
2019-05-30T15:09:14.417Z,1012.55
2019-05-30T15:09:59.549Z,1012.51
2019-05-30T15:10:59.565Z,1012.52
2019-05-30T15:11:59.583Z,1012.55
2019-05-30T15:12:59.603Z,1012.55
2019-05-30T15:13:59.521Z,1012.51
2019-05-30T15:14:59.587Z,1012.55
2019-05-30T15:15:59.560Z,1012.51
2019-05-30T15:16:59.626Z,1012.50
2019-05-30T15:17:59.654Z,1012.51
2019-05-30T15:18:59.548Z,1012.52
2019-05-30T15:19:59.558Z,1012.51
2019-05-30T15:20:59.543Z,1012.51
2019-05-30T15:21:59.558Z,1012.52
2019-05-30T15:22:59.651Z,1012.59
2019-05-30T15:23:59.710Z,1012.51
2019-05-30T15:24:59.573Z,1012.53
2019-05-30T15:25:59.657Z,1012.54
2019-05-30T15:26:59.630Z,1012.53
2019-05-30T15:27:59.685Z,1012.52
2019-05-30T15:28:59.667Z,1012.56
2019-05-30T15:29:59.673Z,1012.53
2019-05-30T15:30:59.639Z,1012.57
2019-05-30T15:31:59.589Z,1012.55
2019-05-30T15:32:59.614Z,1012.57
2019-05-30T15:33:59.705Z,1012.58
2019-05-30T15:34:59.651Z,1012.60
2019-05-30T15:35:59.630Z,1012.62
2019-05-30T15:36:59.632Z,1012.64
2019-05-30T15:37:59.610Z,1012.62
2019-05-30T15:39:09.343Z,1012.64
2019-05-30T15:41:05.287Z,1012.62
2019-05-30T15:42:05.391Z,1012.59
2019-05-30T15:43:05.438Z,1012.67
2019-05-30T15:44:05.246Z,1012.62
2019-05-30T15:45:05.213Z,1012.60
2019-05-30T15:46:05.154Z,1012.64
2019-05-30T15:47:05.241Z,1012.63
2019-05-30T15:48:05.197Z,1012.62
2019-05-30T15:49:05.211Z,1012.62
2019-05-30T15:50:05.220Z,1012.65
2019-05-30T15:51:05.183Z,1012.61
2019-05-30T15:52:05.182Z,1012.58
2019-05-30T15:53:05.265Z,1012.55
2019-05-30T15:54:05.185Z,1012.49
2019-05-30T15:55:05.280Z,1012.55
2019-05-30T15:56:15.197Z,1012.49
2019-05-30T15:57:58.822Z,1012.50
2019-05-30T15:58:58.747Z,1012.53
2019-05-30T15:59:58.803Z,1012.51
2019-05-30T16:00:58.771Z,1012.47
2019-05-30T16:01:58.734Z,1012.50
2019-05-30T16:02:58.837Z,1012.48
2019-05-30T16:06:29.579Z,1012.50
2019-05-30T16:07:29.603Z,1012.52
2019-05-30T16:08:29.507Z,1012.47
2019-05-30T16:09:29.504Z,1012.45
2019-05-30T16:10:29.465Z,1012.47
2019-05-30T16:11:29.494Z,1012.53
2019-05-30T16:12:29.585Z,1012.55
2019-05-30T16:13:29.525Z,1012.57
2019-05-30T16:14:29.489Z,1012.56
2019-05-30T16:15:29.478Z,1012.49
2019-05-30T16:16:39.320Z,1012.49
2019-05-30T16:17:29.497Z,1012.50
2019-05-30T16:18:29.515Z,1012.48
2019-05-30T16:19:29.517Z,1012.48
2019-05-30T16:20:29.598Z,1012.51
2019-05-30T16:21:29.520Z,1012.48
2019-05-30T16:22:29.522Z,1012.52
2019-05-30T16:23:29.517Z,1012.52
2019-05-30T16:24:29.607Z,1012.55
2019-05-30T16:25:29.556Z,1012.55
2019-05-30T16:26:29.621Z,1012.52
2019-05-30T16:27:31.189Z,1012.54
2019-05-30T16:28:29.565Z,1012.53
2019-05-30T16:29:29.587Z,1012.56
2019-05-30T16:30:29.598Z,1012.51
2019-05-30T16:31:29.553Z,1012.52
2019-05-30T16:32:29.607Z,1012.55
2019-05-30T16:33:29.625Z,1012.50
2019-05-30T16:34:32.653Z,1012.48
2019-05-30T16:35:29.620Z,1012.51
2019-05-30T16:36:29.655Z,1012.46
2019-05-30T16:37:29.606Z,1012.43
2019-05-30T16:38:29.633Z,1012.42
2019-05-30T16:39:29.612Z,1012.43
2019-05-30T16:40:29.573Z,1012.47
2019-05-30T16:41:29.629Z,1012.40
2019-05-30T16:42:29.618Z,1012.48
2019-05-30T16:43:29.727Z,1012.46
2019-05-30T16:44:29.590Z,1012.44
2019-05-30T16:45:29.675Z,1012.45
2019-05-30T16:46:29.669Z,1012.44
2019-05-30T16:47:29.701Z,1012.50
2019-05-30T16:48:29.652Z,1012.50
2019-05-30T16:49:29.625Z,1012.55
2019-05-30T16:50:29.671Z,1012.56
2019-05-30T16:51:29.642Z,1012.49
2019-05-30T16:52:29.710Z,1012.55
2019-05-30T16:53:29.666Z,1012.51
2019-05-30T16:54:29.635Z,1012.56
2019-05-30T16:55:29.670Z,1012.57
2019-05-30T16:56:29.639Z,1012.59